sensor_id;sensor_type;location;lat;lon;timestamp;pressure;altitude;pressure_sealevel;temperature;humidity
49835;BME280;35729;52.090;13.162;2023-02-21T00:01:15;100754.91;;;8.83;84.15
49835;BME280;35729;52.090;13.162;2023-02-21T00:03:56;100755.78;;;8.84;84.01
49835;BME280;35729;52.090;13.162;2023-02-21T00:06:42;100765.38;;;8.85;84.03
49835;BME280;35729;52.090;13.162;2023-02-21T00:09:23;100747.03;;;8.86;84.17
49835;BME280;35729;52.090;13.162;2023-02-21T00:12:04;100751.38;;;8.86;84.29
49835;BME280;35729;52.090;13.162;2023-02-21T00:14:45;100754.84;;;8.88;84.11
49835;BME280;35729;52.090;13.162;2023-02-21T00:17:26;100760.06;;;8.88;84.32
49835;BME280;35729;52.090;13.162;2023-02-21T00:20:08;100753.13;;;8.85;84.32
49835;BME280;35729;52.090;13.162;2023-02-21T00:22:51;100756.59;;;8.87;84.18
49835;BME280;35729;52.090;13.162;2023-02-21T00:25:32;100780.16;;;8.86;84.29
49835;BME280;35729;52.090;13.162;2023-02-21T00:28:13;100752.22;;;8.88;84.48
49835;BME280;35729;52.090;13.162;2023-02-21T00:30:54;100764.44;;;8.89;84.59
49835;BME280;35729;52.090;13.162;2023-02-21T00:33:35;100756.56;;;8.90;84.56
49835;BME280;35729;52.090;13.162;2023-02-21T00:36:16;100758.28;;;8.91;84.55
49835;BME280;35729;52.090;13.162;2023-02-21T00:38:59;100767.00;;;8.90;84.52
49835;BME280;35729;52.090;13.162;2023-02-21T00:41:40;100795.78;;;8.90;84.47
49835;BME280;35729;52.090;13.162;2023-02-21T00:44:21;100772.25;;;8.90;84.43
49835;BME280;35729;52.090;13.162;2023-02-21T00:47:02;100770.50;;;8.92;84.88
49835;BME280;35729;52.090;13.162;2023-02-21T00:49:43;100760.84;;;8.94;84.80
49835;BME280;35729;52.090;13.162;2023-02-21T00:52:24;100767.84;;;8.94;84.56
49835;BME280;35729;52.090;13.162;2023-02-21T00:55:08;100777.47;;;8.93;84.71
49835;BME280;35729;52.090;13.162;2023-02-21T00:57:48;100770.44;;;8.95;84.77
49835;BME280;35729;52.090;13.162;2023-02-21T01:00:29;100789.63;;;8.94;84.46
49835;BME280;35729;52.090;13.162;2023-02-21T01:03:10;100793.97;;;8.95;84.48
49835;BME280;35729;52.090;13.162;2023-02-21T01:05:52;100757.31;;;8.97;84.68
49835;BME280;35729;52.090;13.162;2023-02-21T01:08:33;100774.75;;;8.98;84.85
49835;BME280;35729;52.090;13.162;2023-02-21T01:11:19;100773.06;;;8.94;84.45
49835;BME280;35729;52.090;13.162;2023-02-21T01:14:00;100773.91;;;8.98;84.78
49835;BME280;35729;52.090;13.162;2023-02-21T01:16:40;100758.19;;;8.98;84.90
49835;BME280;35729;52.090;13.162;2023-02-21T01:19:25;100761.69;;;8.96;85.15
49835;BME280;35729;52.090;13.162;2023-02-21T01:22:06;100742.50;;;8.98;85.27
49835;BME280;35729;52.090;13.162;2023-02-21T01:24:48;100741.63;;;8.97;85.27
49835;BME280;35729;52.090;13.162;2023-02-21T01:27:32;100733.75;;;8.99;85.20
49835;BME280;35729;52.090;13.162;2023-02-21T01:30:12;100721.50;;;9.01;85.57
49835;BME280;35729;52.090;13.162;2023-02-21T01:32:53;100731.94;;;9.02;85.51
49835;BME280;35729;52.090;13.162;2023-02-21T01:35:34;100741.56;;;9.02;85.19
49835;BME280;35729;52.090;13.162;2023-02-21T01:38:15;100732.84;;;9.01;85.30
49835;BME280;35729;52.090;13.162;2023-02-21T01:40:56;100733.69;;;9.02;85.37
49835;BME280;35729;52.090;13.162;2023-02-21T01:44:00;100775.56;;;9.02;85.48
49835;BME280;35729;52.090;13.162;2023-02-21T01:46:49;100727.63;;;9.01;85.66
49835;BME280;35729;52.090;13.162;2023-02-21T01:49:30;100735.44;;;9.03;85.59
49835;BME280;35729;52.090;13.162;2023-02-21T01:52:13;100733.66;;;9.03;85.87
49835;BME280;35729;52.090;13.162;2023-02-21T01:54:55;100781.66;;;9.04;85.82
49835;BME280;35729;52.090;13.162;2023-02-21T01:57:38;100755.50;;;9.04;85.83
49835;BME280;35729;52.090;13.162;2023-02-21T02:00:28;100740.59;;;9.06;85.86
49835;BME280;35729;52.090;13.162;2023-02-21T02:03:12;100723.16;;;9.05;85.95
49835;BME280;35729;52.090;13.162;2023-02-21T02:05:57;100752.88;;;9.04;85.87
49835;BME280;35729;52.090;13.162;2023-02-21T02:08:39;100714.47;;;9.04;86.03
49835;BME280;35729;52.090;13.162;2023-02-21T02:11:37;100730.16;;;9.06;86.02
49835;BME280;35729;52.090;13.162;2023-02-21T02:14:36;100698.81;;;9.03;86.11
49835;BME280;35729;52.090;13.162;2023-02-21T02:17:14;100720.63;;;9.02;86.28
49835;BME280;35729;52.090;13.162;2023-02-21T02:20:05;100711.91;;;9.01;86.43
49835;BME280;35729;52.090;13.162;2023-02-21T02:23:05;100725.88;;;9.00;86.58
49835;BME280;35729;52.090;13.162;2023-02-21T02:25:55;100715.44;;;8.99;86.64
49835;BME280;35729;52.090;13.162;2023-02-21T02:28:45;100715.44;;;8.99;86.80
49835;BME280;35729;52.090;13.162;2023-02-21T02:31:31;100706.72;;;8.98;87.00
49835;BME280;35729;52.090;13.162;2023-02-21T02:34:32;100688.38;;;9.00;86.99
49835;BME280;35729;52.090;13.162;2023-02-21T02:37:09;100681.44;;;8.99;87.17
49835;BME280;35729;52.090;13.162;2023-02-21T02:39:46;100699.75;;;8.99;87.14
49835;BME280;35729;52.090;13.162;2023-02-21T02:42:25;100702.38;;;8.99;87.35
49835;BME280;35729;52.090;13.162;2023-02-21T02:44:59;100711.94;;;8.98;87.09
49835;BME280;35729;52.090;13.162;2023-02-21T02:47:33;100679.69;;;8.98;87.12
49835;BME280;35729;52.090;13.162;2023-02-21T02:50:07;100688.38;;;9.00;87.20
49835;BME280;35729;52.090;13.162;2023-02-21T02:52:37;100704.97;;;8.99;87.09
49835;BME280;35729;52.090;13.162;2023-02-21T02:55:23;100708.41;;;9.01;86.97
49835;BME280;35729;52.090;13.162;2023-02-21T02:57:53;100704.06;;;9.01;87.04
49835;BME280;35729;52.090;13.162;2023-02-21T03:00:22;100715.38;;;9.02;86.93
49835;BME280;35729;52.090;13.162;2023-02-21T03:03:04;100711.91;;;9.01;86.99
49835;BME280;35729;52.090;13.162;2023-02-21T03:05:53;100708.38;;;9.02;87.00
49835;BME280;35729;52.090;13.162;2023-02-21T03:08:35;100715.41;;;9.00;87.09
49835;BME280;35729;52.090;13.162;2023-02-21T03:11:13;100706.69;;;9.01;87.01
49835;BME280;35729;52.090;13.162;2023-02-21T03:13:46;100690.94;;;9.03;87.05
49835;BME280;35729;52.090;13.162;2023-02-21T03:16:22;100716.25;;;9.04;87.08
49835;BME280;35729;52.090;13.162;2023-02-21T03:18:56;100697.91;;;9.04;87.07
49835;BME280;35729;52.090;13.162;2023-02-21T03:21:31;100688.28;;;9.06;87.32
49835;BME280;35729;52.090;13.162;2023-02-21T03:24:03;100678.69;;;9.06;87.32
49835;BME280;35729;52.090;13.162;2023-02-21T03:26:35;100703.09;;;9.07;86.99
49835;BME280;35729;52.090;13.162;2023-02-21T03:29:04;100682.16;;;9.07;87.25
49835;BME280;35729;52.090;13.162;2023-02-21T03:31:38;100687.41;;;9.05;87.21
49835;BME280;35729;52.090;13.162;2023-02-21T03:34:09;100688.22;;;9.09;87.36
49835;BME280;35729;52.090;13.162;2023-02-21T03:36:40;100674.25;;;9.08;87.42
49835;BME280;35729;52.090;13.162;2023-02-21T03:39:09;100689.97;;;9.10;87.27
49835;BME280;35729;52.090;13.162;2023-02-21T03:41:38;100692.63;;;9.07;87.44
49835;BME280;35729;52.090;13.162;2023-02-21T03:44:06;100685.66;;;9.06;87.62
49835;BME280;35729;52.090;13.162;2023-02-21T03:46:34;100692.59;;;9.08;87.74
49835;BME280;35729;52.090;13.162;2023-02-21T03:49:03;100749.34;;;9.06;87.66
49835;BME280;35729;52.090;13.162;2023-02-21T03:51:31;100687.38;;;9.07;87.90
49835;BME280;35729;52.090;13.162;2023-02-21T03:54:02;100683.00;;;9.09;87.87
49835;BME280;35729;52.090;13.162;2023-02-21T03:56:31;100688.28;;;9.06;87.83
49835;BME280;35729;52.090;13.162;2023-02-21T03:59:00;100676.03;;;9.08;88.02
49835;BME280;35729;52.090;13.162;2023-02-21T04:01:28;100699.63;;;9.05;87.92
49835;BME280;35729;52.090;13.162;2023-02-21T04:03:57;100686.53;;;9.05;88.17
49835;BME280;35729;52.090;13.162;2023-02-21T04:06:25;100671.69;;;9.07;88.60
49835;BME280;35729;52.090;13.162;2023-02-21T04:08:53;100682.19;;;9.05;88.71
49835;BME280;35729;52.090;13.162;2023-02-21T04:11:25;100685.75;;;9.01;89.06
49835;BME280;35729;52.090;13.162;2023-02-21T04:13:53;100684.91;;;8.99;89.18
49835;BME280;35729;52.090;13.162;2023-02-21T04:16:22;100677.03;;;8.99;89.23
49835;BME280;35729;52.090;13.162;2023-02-21T04:18:50;100676.22;;;8.95;89.29
49835;BME280;35729;52.090;13.162;2023-02-21T04:21:19;100691.06;;;8.95;89.92
49835;BME280;35729;52.090;13.162;2023-02-21T04:23:47;100697.22;;;8.92;90.65
49835;BME280;35729;52.090;13.162;2023-02-21T04:26:16;100662.34;;;8.90;91.40
49835;BME280;35729;52.090;13.162;2023-02-21T04:28:47;100656.41;;;8.82;92.48
49835;BME280;35729;52.090;13.162;2023-02-21T04:31:15;100663.44;;;8.77;92.82
49835;BME280;35729;52.090;13.162;2023-02-21T04:33:44;100676.69;;;8.66;94.53
49835;BME280;35729;52.090;13.162;2023-02-21T04:36:12;100679.44;;;8.57;95.53
49835;BME280;35729;52.090;13.162;2023-02-21T04:38:41;100671.69;;;8.49;95.92
49835;BME280;35729;52.090;13.162;2023-02-21T04:41:10;100684.84;;;8.43;96.40
49835;BME280;35729;52.090;13.162;2023-02-21T04:43:40;100680.53;;;8.37;97.46
49835;BME280;35729;52.090;13.162;2023-02-21T04:46:12;100674.50;;;8.34;98.08
49835;BME280;35729;52.090;13.162;2023-02-21T04:48:42;100682.38;;;8.30;98.36
49835;BME280;35729;52.090;13.162;2023-02-21T04:51:11;100679.78;;;8.29;98.13
49835;BME280;35729;52.090;13.162;2023-02-21T04:53:40;100669.38;;;8.26;98.51
49835;BME280;35729;52.090;13.162;2023-02-21T04:56:09;100677.25;;;8.24;98.54
49835;BME280;35729;52.090;13.162;2023-02-21T04:58:38;100673.75;;;8.25;98.30
49835;BME280;35729;52.090;13.162;2023-02-21T05:01:06;100678.06;;;8.26;98.16
49835;BME280;35729;52.090;13.162;2023-02-21T05:03:37;100679.78;;;8.27;97.95
49835;BME280;35729;52.090;13.162;2023-02-21T05:06:06;100688.50;;;8.29;97.24
49835;BME280;35729;52.090;13.162;2023-02-21T05:08:35;100690.19;;;8.34;97.14
49835;BME280;35729;52.090;13.162;2023-02-21T05:11:03;100696.25;;;8.36;96.80
49835;BME280;35729;52.090;13.162;2023-02-21T05:13:33;100692.72;;;8.40;96.27
49835;BME280;35729;52.090;13.162;2023-02-21T05:16:01;100689.19;;;8.42;95.73
49835;BME280;35729;52.090;13.162;2023-02-21T05:18:30;100701.34;;;8.45;95.44
49835;BME280;35729;52.090;13.162;2023-02-21T05:21:01;100690.84;;;8.51;95.16
49835;BME280;35729;52.090;13.162;2023-02-21T05:23:30;100698.66;;;8.53;94.77
49835;BME280;35729;52.090;13.162;2023-02-21T05:26:04;100693.41;;;8.56;94.40
49835;BME280;35729;52.090;13.162;2023-02-21T05:28:33;100692.50;;;8.58;93.88
49835;BME280;35729;52.090;13.162;2023-02-21T05:31:02;100704.63;;;8.62;93.67
49835;BME280;35729;52.090;13.162;2023-02-21T05:33:32;100706.31;;;8.67;93.67
49835;BME280;35729;52.090;13.162;2023-02-21T05:36:04;100714.16;;;8.68;93.21
49835;BME280;35729;52.090;13.162;2023-02-21T05:38:32;100711.50;;;8.70;92.93
49835;BME280;35729;52.090;13.162;2023-02-21T05:41:01;100715.84;;;8.72;92.78
49835;BME280;35729;52.090;13.162;2023-02-21T05:43:29;100713.25;;;8.71;92.94
49835;BME280;35729;52.090;13.162;2023-02-21T05:45:58;100736.72;;;8.74;93.39
49835;BME280;35729;52.090;13.162;2023-02-21T05:48:26;100720.19;;;8.73;93.54
49835;BME280;35729;52.090;13.162;2023-02-21T05:50:55;100714.06;;;8.73;93.89
49835;BME280;35729;52.090;13.162;2023-02-21T05:53:26;100716.72;;;8.71;94.24
49835;BME280;35729;52.090;13.162;2023-02-21T05:55:54;100731.63;;;8.66;95.16
49835;BME280;35729;52.090;13.162;2023-02-21T05:58:23;100729.91;;;8.63;95.33
49835;BME280;35729;52.090;13.162;2023-02-21T06:00:51;100730.84;;;8.58;96.24
49835;BME280;35729;52.090;13.162;2023-02-21T06:03:20;100736.13;;;8.55;96.73
49835;BME280;35729;52.090;13.162;2023-02-21T06:05:48;100731.84;;;8.47;97.16
49835;BME280;35729;52.090;13.162;2023-02-21T06:08:17;100749.28;;;8.44;97.79
49835;BME280;35729;52.090;13.162;2023-02-21T06:10:48;100743.22;;;8.40;97.90
49835;BME280;35729;52.090;13.162;2023-02-21T06:13:16;100739.81;;;8.37;98.36
49835;BME280;35729;52.090;13.162;2023-02-21T06:15:45;100741.59;;;8.33;99.02
49835;BME280;35729;52.090;13.162;2023-02-21T06:18:14;100739.00;;;8.30;99.96
49835;BME280;35729;52.090;13.162;2023-02-21T06:20:43;100746.03;;;8.26;100.00
49835;BME280;35729;52.090;13.162;2023-02-21T06:23:12;100755.69;;;8.23;100.00
49835;BME280;35729;52.090;13.162;2023-02-21T06:25:40;100746.13;;;8.20;100.00
49835;BME280;35729;52.090;13.162;2023-02-21T06:28:11;100740.91;;;8.17;100.00
49835;BME280;35729;52.090;13.162;2023-02-21T06:30:40;100740.09;;;8.13;100.00
49835;BME280;35729;52.090;13.162;2023-02-21T06:33:08;100746.19;;;8.12;100.00
49835;BME280;35729;52.090;13.162;2023-02-21T06:35:43;100751.47;;;8.09;100.00
49835;BME280;35729;52.090;13.162;2023-02-21T06:38:12;100745.38;;;8.07;100.00
49835;BME280;35729;52.090;13.162;2023-02-21T06:40:40;100745.41;;;8.06;100.00
49835;BME280;35729;52.090;13.162;2023-02-21T06:43:12;100742.81;;;8.04;100.00
49835;BME280;35729;52.090;13.162;2023-02-21T06:45:40;100746.31;;;8.03;100.00
49835;BME280;35729;52.090;13.162;2023-02-21T06:48:13;100747.19;;;8.01;100.00
49835;BME280;35729;52.090;13.162;2023-02-21T06:50:42;100766.38;;;7.98;100.00
49835;BME280;35729;52.090;13.162;2023-02-21T06:53:10;100768.13;;;7.96;100.00
49835;BME280;35729;52.090;13.162;2023-02-21T06:55:39;100764.69;;;7.95;100.00
49835;BME280;35729;52.090;13.162;2023-02-21T06:58:10;100764.69;;;7.95;100.00
49835;BME280;35729;52.090;13.162;2023-02-21T07:00:39;100767.28;;;7.95;100.00
49835;BME280;35729;52.090;13.162;2023-02-21T07:03:07;100768.16;;;7.94;100.00
49835;BME280;35729;52.090;13.162;2023-02-21T07:05:36;100773.38;;;7.94;100.00
49835;BME280;35729;52.090;13.162;2023-02-21T07:08:04;100778.63;;;7.94;100.00
49835;BME280;35729;52.090;13.162;2023-02-21T07:10:33;100786.44;;;7.94;100.00
49835;BME280;35729;52.090;13.162;2023-02-21T07:13:11;100790.81;;;7.95;100.00
49835;BME280;35729;52.090;13.162;2023-02-21T07:15:39;100787.31;;;7.96;100.00
49835;BME280;35729;52.090;13.162;2023-02-21T07:18:08;100798.63;;;7.95;100.00
49835;BME280;35729;52.090;13.162;2023-02-21T07:20:36;100803.88;;;7.95;100.00
49835;BME280;35729;52.090;13.162;2023-02-21T07:23:05;100803.00;;;7.96;100.00
49835;BME280;35729;52.090;13.162;2023-02-21T07:25:33;100798.63;;;7.97;100.00
49835;BME280;35729;52.090;13.162;2023-02-21T07:28:02;100804.72;;;7.97;100.00
49835;BME280;35729;52.090;13.162;2023-02-21T07:30:33;100802.97;;;7.98;100.00
49835;BME280;35729;52.090;13.162;2023-02-21T07:33:02;100815.16;;;7.99;100.00
49835;BME280;35729;52.090;13.162;2023-02-21T07:35:30;100823.84;;;7.99;100.00
49835;BME280;35729;52.090;13.162;2023-02-21T07:37:59;100814.28;;;8.00;100.00
49835;BME280;35729;52.090;13.162;2023-02-21T07:40:27;100822.97;;;8.01;100.00
49835;BME280;35729;52.090;13.162;2023-02-21T07:42:56;100823.84;;;8.03;100.00
49835;BME280;35729;52.090;13.162;2023-02-21T07:45:24;100821.22;;;8.03;100.00
49835;BME280;35729;52.090;13.162;2023-02-21T07:47:56;100824.69;;;8.03;100.00
49835;BME280;35729;52.090;13.162;2023-02-21T07:50:24;100837.72;;;8.05;100.00
49835;BME280;35729;52.090;13.162;2023-02-21T07:52:52;100829.03;;;8.04;100.00
49835;BME280;35729;52.090;13.162;2023-02-21T07:55:21;100841.25;;;8.02;100.00
49835;BME280;35729;52.090;13.162;2023-02-21T07:57:50;100837.75;;;8.06;100.00
49835;BME280;35729;52.090;13.162;2023-02-21T08:00:19;100846.44;;;8.07;100.00
49835;BME280;35729;52.090;13.162;2023-02-21T08:02:50;100834.22;;;8.09;100.00
49835;BME280;35729;52.090;13.162;2023-02-21T08:05:21;100842.06;;;8.09;100.00
49835;BME280;35729;52.090;13.162;2023-02-21T08:07:50;100855.13;;;8.10;100.00
49835;BME280;35729;52.090;13.162;2023-02-21T08:10:21;100868.16;;;8.12;100.00
49835;BME280;35729;52.090;13.162;2023-02-21T08:12:50;100863.78;;;8.14;100.00
49835;BME280;35729;52.090;13.162;2023-02-21T08:15:19;100871.59;;;8.15;100.00
49835;BME280;35729;52.090;13.162;2023-02-21T08:17:48;100875.97;;;8.17;100.00
49835;BME280;35729;52.090;13.162;2023-02-21T08:20:17;100886.41;;;8.18;100.00
49835;BME280;35729;52.090;13.162;2023-02-21T08:22:48;100878.53;;;8.20;100.00
49835;BME280;35729;52.090;13.162;2023-02-21T08:25:16;100875.91;;;8.23;100.00
49835;BME280;35729;52.090;13.162;2023-02-21T08:27:45;100878.50;;;8.24;100.00
49835;BME280;35729;52.090;13.162;2023-02-21T08:30:18;100875.88;;;8.26;100.00
49835;BME280;35729;52.090;13.162;2023-02-21T08:32:47;100880.19;;;8.28;100.00
49835;BME280;35729;52.090;13.162;2023-02-21T08:35:16;100881.91;;;8.31;100.00
49835;BME280;35729;52.090;13.162;2023-02-21T08:37:49;100881.00;;;8.34;100.00
49835;BME280;35729;52.090;13.162;2023-02-21T08:40:22;100886.25;;;8.34;100.00
49835;BME280;35729;52.090;13.162;2023-02-21T08:42:53;100887.97;;;8.35;100.00
49835;BME280;35729;52.090;13.162;2023-02-21T08:45:23;100897.56;;;8.36;100.00
49835;BME280;35729;52.090;13.162;2023-02-21T08:47:53;100881.91;;;8.34;100.00
49835;BME280;35729;52.090;13.162;2023-02-21T08:50:22;100890.56;;;8.36;100.00
49835;BME280;35729;52.090;13.162;2023-02-21T08:52:55;100896.69;;;8.37;100.00
49835;BME280;35729;52.090;13.162;2023-02-21T08:55:23;100893.19;;;8.35;100.00
49835;BME280;35729;52.090;13.162;2023-02-21T08:57:53;100903.63;;;8.36;100.00
49835;BME280;35729;52.090;13.162;2023-02-21T09:00:23;100893.19;;;8.35;100.00
49835;BME280;35729;52.090;13.162;2023-02-21T09:02:53;100901.09;;;8.31;100.00
49835;BME280;35729;52.090;13.162;2023-02-21T09:05:24;100900.19;;;8.32;100.00
49835;BME280;35729;52.090;13.162;2023-02-21T09:07:57;100916.78;;;8.31;100.00
49835;BME280;35729;52.090;13.162;2023-02-21T09:10:27;100918.53;;;8.29;100.00
49835;BME280;35729;52.090;13.162;2023-02-21T09:12:58;100925.47;;;8.29;100.00
49835;BME280;35729;52.090;13.162;2023-02-21T09:15:26;100916.81;;;8.27;100.00
49835;BME280;35729;52.090;13.162;2023-02-21T09:17:56;100918.56;;;8.25;100.00
49835;BME280;35729;52.090;13.162;2023-02-21T09:20:25;100919.47;;;8.22;100.00
49835;BME280;35729;52.090;13.162;2023-02-21T09:22:56;100926.41;;;8.23;100.00
49835;BME280;35729;52.090;13.162;2023-02-21T09:25:25;100911.69;;;8.18;100.00
49835;BME280;35729;52.090;13.162;2023-02-21T09:27:53;100920.34;;;8.20;100.00
49835;BME280;35729;52.090;13.162;2023-02-21T09:30:24;100924.72;;;8.19;100.00
49835;BME280;35729;52.090;13.162;2023-02-21T09:32:55;100913.38;;;8.19;100.00
49835;BME280;35729;52.090;13.162;2023-02-21T09:35:23;100921.25;;;8.17;100.00
49835;BME280;35729;52.090;13.162;2023-02-21T09:37:58;100916.91;;;8.18;100.00
49835;BME280;35729;52.090;13.162;2023-02-21T09:40:33;100937.78;;;8.19;100.00
49835;BME280;35729;52.090;13.162;2023-02-21T09:43:05;100919.50;;;8.19;100.00
49835;BME280;35729;52.090;13.162;2023-02-21T09:45:35;100931.66;;;8.22;100.00
49835;BME280;35729;52.090;13.162;2023-02-21T09:48:08;100923.84;;;8.22;100.00
49835;BME280;35729;52.090;13.162;2023-02-21T09:50:42;100937.72;;;8.24;100.00
49835;BME280;35729;52.090;13.162;2023-02-21T09:53:18;100945.59;;;8.25;100.00
49835;BME280;35729;52.090;13.162;2023-02-21T09:55:49;100928.13;;;8.26;100.00
49835;BME280;35729;52.090;13.162;2023-02-21T09:58:19;100930.72;;;8.30;100.00
49835;BME280;35729;52.090;13.162;2023-02-21T10:00:48;100936.78;;;8.32;100.00
49835;BME280;35729;52.090;13.162;2023-02-21T10:03:29;100938.50;;;8.35;100.00
49835;BME280;35729;52.090;13.162;2023-02-21T10:06:03;100931.50;;;8.39;100.00
49835;BME280;35729;52.090;13.162;2023-02-21T10:08:43;100931.50;;;8.42;100.00
49835;BME280;35729;52.090;13.162;2023-02-21T10:11:36;100934.06;;;8.43;100.00
49835;BME280;35729;52.090;13.162;2023-02-21T10:14:22;100931.47;;;8.43;100.00
49835;BME280;35729;52.090;13.162;2023-02-21T10:16:58;100934.09;;;8.42;100.00
49835;BME280;35729;52.090;13.162;2023-02-21T10:19:31;100929.75;;;8.41;100.00
49835;BME280;35729;52.090;13.162;2023-02-21T10:22:12;100934.06;;;8.43;100.00
49835;BME280;35729;52.090;13.162;2023-02-21T10:24:44;100941.03;;;8.44;100.00
49835;BME280;35729;52.090;13.162;2023-02-21T10:27:16;100930.59;;;8.46;100.00
49835;BME280;35729;52.090;13.162;2023-02-21T10:29:49;100936.66;;;8.45;100.00
49835;BME280;35729;52.090;13.162;2023-02-21T10:32:19;100938.44;;;8.46;100.00
49835;BME280;35729;52.090;13.162;2023-02-21T10:34:49;100943.69;;;8.43;100.00
49835;BME280;35729;52.090;13.162;2023-02-21T10:37:31;100940.22;;;8.41;100.00
49835;BME280;35729;52.090;13.162;2023-02-21T10:40:20;100948.94;;;8.40;100.00
49835;BME280;35729;52.090;13.162;2023-02-21T10:42:53;100939.34;;;8.39;100.00
49835;BME280;35729;52.090;13.162;2023-02-21T10:45:32;100946.31;;;8.40;100.00
49835;BME280;35729;52.090;13.162;2023-02-21T10:48:03;100938.50;;;8.38;100.00
49835;BME280;35729;52.090;13.162;2023-02-21T10:50:38;100936.72;;;8.39;100.00
49835;BME280;35729;52.090;13.162;2023-02-21T10:53:20;100942.84;;;8.38;100.00
49835;BME280;35729;52.090;13.162;2023-02-21T10:56:21;100950.69;;;8.38;100.00
49835;BME280;35729;52.090;13.162;2023-02-21T10:58:52;100948.94;;;8.38;100.00
49835;BME280;35729;52.090;13.162;2023-02-21T11:01:30;100961.13;;;8.38;100.00
49835;BME280;35729;52.090;13.162;2023-02-21T11:04:02;100963.81;;;8.33;100.00
49835;BME280;35729;52.090;13.162;2023-02-21T11:06:34;100949.13;;;8.18;100.00
49835;BME280;35729;52.090;13.162;2023-02-21T11:09:31;100968.34;;;8.11;100.00
49835;BME280;35729;52.090;13.162;2023-02-21T11:12:05;100954.47;;;7.99;100.00
49835;BME280;35729;52.090;13.162;2023-02-21T11:14:34;100962.44;;;7.89;100.00
49835;BME280;35729;52.090;13.162;2023-02-21T11:17:15;100969.44;;;7.83;100.00
49835;BME280;35729;52.090;13.162;2023-02-21T11:19:46;100974.69;;;7.77;100.00
49835;BME280;35729;52.090;13.162;2023-02-21T11:22:18;100969.47;;;7.73;100.00
49835;BME280;35729;52.090;13.162;2023-02-21T11:24:51;100975.56;;;7.72;100.00
49835;BME280;35729;52.090;13.162;2023-02-21T11:27:24;100976.47;;;7.69;100.00
49835;BME280;35729;52.090;13.162;2023-02-21T11:29:54;100972.97;;;7.67;100.00
49835;BME280;35729;52.090;13.162;2023-02-21T11:32:26;100978.22;;;7.69;100.00
49835;BME280;35729;52.090;13.162;2023-02-21T11:35:06;100967.75;;;7.70;100.00
49835;BME280;35729;52.090;13.162;2023-02-21T11:37:48;100968.63;;;7.74;100.00
49835;BME280;35729;52.090;13.162;2023-02-21T11:40:25;100963.34;;;7.77;100.00
49835;BME280;35729;52.090;13.162;2023-02-21T11:46:04;100974.69;;;7.77;100.00
49835;BME280;35729;52.090;13.162;2023-02-21T11:48:41;100966.81;;;7.80;100.00
49835;BME280;35729;52.090;13.162;2023-02-21T11:51:17;100973.78;;;7.81;100.00
49835;BME280;35729;52.090;13.162;2023-02-21T11:53:51;100967.66;;;7.86;100.00
49835;BME280;35729;52.090;13.162;2023-02-21T11:56:31;100974.56;;;7.90;100.00
49835;BME280;35729;52.090;13.162;2023-02-21T11:59:09;100971.13;;;7.92;100.00
49835;BME280;35729;52.090;13.162;2023-02-21T12:01:50;100974.56;;;7.94;100.00
49835;BME280;35729;52.090;13.162;2023-02-21T12:04:40;100974.56;;;7.93;100.00
49835;BME280;35729;52.090;13.162;2023-02-21T12:07:16;100967.66;;;7.89;100.00
49835;BME280;35729;52.090;13.162;2023-02-21T12:09:53;100969.38;;;7.87;100.00
49835;BME280;35729;52.090;13.162;2023-02-21T12:12:32;100970.25;;;7.86;100.00
49835;BME280;35729;52.090;13.162;2023-02-21T12:15:14;100962.47;;;7.81;100.00
49835;BME280;35729;52.090;13.162;2023-02-21T12:18:00;100967.69;;;7.79;100.00
49835;BME280;35729;52.090;13.162;2023-02-21T12:20:56;100972.91;;;7.82;100.00
49835;BME280;35729;52.090;13.162;2023-02-21T12:23:37;100968.53;;;7.83;100.00
49835;BME280;35729;52.090;13.162;2023-02-21T12:26:29;100967.66;;;7.86;100.00
49835;BME280;35729;52.090;13.162;2023-02-21T12:29:11;100965.94;;;7.86;100.00
49835;BME280;35729;52.090;13.162;2023-02-21T12:31:57;100972.00;;;7.88;100.00
49835;BME280;35729;52.090;13.162;2023-02-21T12:34:36;100959.78;;;7.90;100.00
49835;BME280;35729;52.090;13.162;2023-02-21T12:37:18;100955.41;;;7.91;100.00
49835;BME280;35729;52.090;13.162;2023-02-21T12:40:02;100951.94;;;7.92;100.00
49835;BME280;35729;52.090;13.162;2023-02-21T12:45:40;100944.13;;;7.90;100.00
49835;BME280;35729;52.090;13.162;2023-02-21T12:48:17;100947.59;;;7.92;100.00
49835;BME280;35729;52.090;13.162;2023-02-21T12:51:01;100944.09;;;7.93;100.00
49835;BME280;35729;52.090;13.162;2023-02-21T12:53:36;100950.16;;;8.00;100.00
49835;BME280;35729;52.090;13.162;2023-02-21T12:56:11;100950.09;;;8.03;100.00
49835;BME280;35729;52.090;13.162;2023-02-21T12:58:46;100943.97;;;8.07;100.00
49835;BME280;35729;52.090;13.162;2023-02-21T13:01:19;100960.47;;;8.12;100.00
49835;BME280;35729;52.090;13.162;2023-02-21T13:03:55;100970.94;;;8.14;100.00
49835;BME280;35729;52.090;13.162;2023-02-21T13:06:33;100951.75;;;8.13;100.00
49835;BME280;35729;52.090;13.162;2023-02-21T13:09:11;100944.78;;;8.15;100.00
49835;BME280;35729;52.090;13.162;2023-02-21T13:11:47;100936.06;;;8.18;100.00
49835;BME280;35729;52.090;13.162;2023-02-21T13:14:22;100943.91;;;8.18;100.00
49835;BME280;35729;52.090;13.162;2023-02-21T13:16:52;100943.03;;;8.19;100.00
49835;BME280;35729;52.090;13.162;2023-02-21T13:19:21;100939.53;;;8.19;100.00
49835;BME280;35729;52.090;13.162;2023-02-21T13:22:08;100956.06;;;8.21;100.00
49835;BME280;35729;52.090;13.162;2023-02-21T13:25:15;100950.88;;;8.18;100.00
49835;BME280;35729;52.090;13.162;2023-02-21T13:27:53;100936.94;;;8.17;100.00
49835;BME280;35729;52.090;13.162;2023-02-21T13:30:27;100946.56;;;8.12;100.00